Terminal Aerodrome Forecast
Issued by NWS

Home | Current Version | Previous Version | Graphics & Text | Print | Product List | Glossary On
Versions: 1 2 3 4 5 6 7 8 9 10 11 12 13 14 15 16
000
FTUS43 KGRB 260800 AAA
TAFAUW
TAF AMD
KAUW 260857Z 2609/2706 30012KT P6SM OVC030
     FM261100 30010KT P6SM BKN025
     FM261400 32012KT P6SM BKN030
     FM270200 34009KT P6SM SCT030=

USA.gov is the U.S. government's official web portal to all federal, state and local government web resources and services.